Aérodrome :
LOGIN :

S'inscrire | Disclaimer

   EN    FR    IT 

 










Légende :    VFR   VFR Marginal   IFR   IFR Intensif   IFR Très Intensif
Visi : 
Plafond : 
>= 8 km
>= 3000ft
5 à 8 km
1000 à 3000 ft
1500m à 5 km
500 à 1000 ft
800 à 1500m
200 à 500 ft
< 800m
< 200 ft
Symboles :   Orages  Brouillard  Fortes neiges  Fortes précipitations  Vent > 20 kt
SIGMETs :   Divers  Orages  Givrage  Turbulence  Onde Orograph.  Cendres Volcan.






- Altitude de l'aérodrome : 39 ft


ETNH - Hohn AB

DERNIER METAR :
  • 131120Z 18013KT 9999 BKN012 05/02 Q0997 GRN WHT TEMPO YLO

METARs EXPIRÉS :
  • 131020Z 18010KT 9999 BKN012 BKN041 04/01 Q0997 GRN WHT TEMPO YLO
  • 130946Z 17008KT 9999 BKN012 04/01 Q0997 GRN WHT TEMPO YLO
  • 130920Z 17008KT 9999 BKN015 04/01 Q0997 WHT WHT TEMPO YLO

TAF TAF ETNH
Valide du 13 à 12h jusqu'au 14 à 00h UTC


131120Z 1312/1324 17010KT 9999 NSW BKN015
TEMPO 1312/1318 20012KT 4000 SHRA BKN008 BKN020TCU
BECMG 1320/1322 18008KT 9000 NSW BKN010
TEMPO 1322/1324 17005KT 3000 BR BKN003 BY ETGL



MET'MAP, la Météo Aéronautique d'un coup d'oeil ! - Copyright ORBIFLY Décembre 2007 - Disclaimer

ORBIFLY MET'MAP TEAM :

Programmation & Développement : Alexandra Zaïnal
Conception & Développement : Baudouin d'Aumeries
Co-Programmation & Développement : Marc-Olivier Méhu
Soutien technique & logistique : Manuel Goepfert

Contact : metmap@orbifly.com




SOURCES & CREDITS :

   NOAA